createdAt,value
2022-09-26T00:03:52.842Z,98456.50
2022-09-26T00:08:56.098Z,98489.75
2022-09-26T00:14:02.352Z,98482.34
2022-09-26T00:19:05.315Z,98493.31
2022-09-26T00:24:08.374Z,98494.84
2022-09-26T00:29:12.806Z,98501.06
2022-09-26T00:34:18.421Z,98506.31
2022-09-26T00:39:20.992Z,98507.28
2022-09-26T00:44:44.999Z,98510.50
2022-09-26T00:49:51.089Z,98513.81
2022-09-26T00:54:56.806Z,98516.50
2022-09-26T01:00:03.107Z,98514.72
2022-09-26T01:05:07.281Z,98500.91
2022-09-26T01:10:10.438Z,98516.28
2022-09-26T01:15:14.842Z,98502.88
2022-09-26T01:20:26.629Z,98511.56
2022-09-26T01:25:29.190Z,98511.56
2022-09-26T01:30:40.147Z,98484.97
2022-09-26T01:36:02.738Z,98501.06
2022-09-26T01:41:33.048Z,98507.38
2022-09-26T01:46:55.410Z,98517.38
2022-09-26T01:52:10.552Z,98523.28
2022-09-26T01:57:26.613Z,98524.28
2022-09-26T02:02:36.141Z,98536.28
2022-09-26T02:07:56.302Z,98512.88
2022-09-26T02:13:15.055Z,98541.75
2022-09-26T02:18:23.905Z,98547.06
2022-09-26T02:23:26.497Z,98554.13
2022-09-26T02:28:31.366Z,98558.38
2022-09-26T02:33:35.246Z,98559.75
2022-09-26T02:38:38.032Z,98557.06
2022-09-26T02:44:10.896Z,98563.09
2022-09-26T02:49:45.486Z,98559.56
2022-09-26T02:55:19.935Z,98558.00
2022-09-26T03:00:25.177Z,98557.72
2022-09-26T03:05:31.116Z,98548.34
2022-09-26T03:10:38.473Z,98554.59
2022-09-26T03:15:45.374Z,98552.75
2022-09-26T03:20:48.979Z,98559.81
2022-09-26T03:26:05.015Z,98567.50
2022-09-26T03:31:08.410Z,98553.75
2022-09-26T03:36:25.625Z,98559.63
2022-09-26T03:41:28.661Z,98568.91
2022-09-26T03:46:41.179Z,98526.25
2022-09-26T03:51:46.028Z,98569.00
2022-09-26T03:56:48.688Z,98577.56
2022-09-26T04:01:52.463Z,98557.00
2022-09-26T04:06:55.214Z,98589.72
2022-09-26T04:11:57.847Z,98581.16
2022-09-26T04:17:00.418Z,98586.13
2022-09-26T04:22:10.424Z,98583.53
2022-09-26T04:27:13.750Z,98592.97
2022-09-26T04:32:17.644Z,98598.72
2022-09-26T04:37:39.065Z,98592.66
2022-09-26T04:42:42.729Z,98599.44
2022-09-26T04:47:45.459Z,98593.25
2022-09-26T04:53:09.246Z,98601.13
2022-09-26T04:58:17.201Z,98605.53
2022-09-26T05:03:20.428Z,98586.88
2022-09-26T05:08:24.271Z,98611.63
2022-09-26T05:13:27.391Z,98612.41
2022-09-26T05:18:31.668Z,98596.09
2022-09-26T05:23:53.820Z,98613.22
2022-09-26T05:29:06.994Z,98619.06
2022-09-26T05:34:20.421Z,98619.94
2022-09-26T05:39:42.626Z,98619.81
2022-09-26T05:44:47.362Z,98624.88
2022-09-26T05:49:50.245Z,98625.41
2022-09-26T05:54:59.346Z,98630.75
2022-09-26T06:00:22.339Z,98627.56
2022-09-26T06:05:26.069Z,98638.50
2022-09-26T06:10:51.260Z,98636.72
2022-09-26T06:15:55.124Z,98638.00
2022-09-26T06:20:57.828Z,98639.59
2022-09-26T06:26:01.070Z,98648.16
2022-09-26T06:31:17.157Z,98637.94
2022-09-26T06:36:39.690Z,98666.25
2022-09-26T06:41:43.060Z,98657.56
2022-09-26T06:47:18.251Z,98665.19
2022-09-26T06:52:21.631Z,98659.16
2022-09-26T06:57:24.601Z,98668.88
2022-09-26T07:02:27.467Z,98678.94
2022-09-26T07:07:43.447Z,98677.31
2022-09-26T07:13:01.153Z,98684.19
2022-09-26T07:18:06.489Z,98678.22
2022-09-26T07:23:29.849Z,98699.31
2022-09-26T07:28:32.517Z,98687.63
2022-09-26T07:33:35.446Z,98705.56
2022-09-26T07:38:43.876Z,98704.56
2022-09-26T07:44:46.234Z,98706.88
2022-09-26T07:49:33.022Z,98714.25
2022-09-26T07:54:36.962Z,98722.09
2022-09-26T07:59:59.414Z,98718.75
2022-09-26T08:05:28.089Z,98722.13
2022-09-26T08:10:32.497Z,98727.47
2022-09-26T08:16:04.291Z,98716.84
2022-09-26T08:21:07.620Z,98725.25
2022-09-26T08:26:10.711Z,98722.16
2022-09-26T08:31:18.856Z,98734.53
2022-09-26T08:36:22.408Z,98737.34
2022-09-26T08:41:47.566Z,98740.63
2022-09-26T08:47:50.482Z,98742.44
2022-09-26T08:53:20.497Z,98753.81
2022-09-26T08:58:52.486Z,98745.47
2022-09-26T09:04:26.344Z,98754.25
2022-09-26T09:09:29.906Z,98761.44
2022-09-26T09:15:25.583Z,98757.41
2022-09-26T09:21:31.129Z,98771.34
2022-09-26T09:32:44.638Z,98783.50
2022-09-26T09:37:54.065Z,98795.19
2022-09-26T09:43:45.224Z,98797.94
2022-09-26T09:48:48.368Z,98803.66
2022-09-26T09:54:34.725Z,98795.78
2022-09-26T10:00:04.693Z,98788.69
2022-09-26T10:05:24.132Z,98786.06
2022-09-26T10:10:46.669Z,98771.22
2022-09-26T10:16:09.790Z,98795.50
2022-09-26T10:21:35.390Z,98795.28
2022-09-26T10:26:39.447Z,98799.41
2022-09-26T10:31:43.877Z,98800.97
2022-09-26T10:36:53.144Z,98792.41
2022-09-26T10:41:58.692Z,98803.31
2022-09-26T10:47:10.551Z,98808.28
2022-09-26T10:52:50.758Z,98811.53
2022-09-26T10:57:58.847Z,98814.75
2022-09-26T11:03:03.677Z,98814.16
2022-09-26T11:08:10.762Z,98813.97
2022-09-26T11:13:24.118Z,98832.66
2022-09-26T11:18:45.380Z,98839.53
2022-09-26T11:24:06.475Z,98843.56
2022-09-26T11:29:09.041Z,98844.78
2022-09-26T11:34:27.859Z,98842.91
2022-09-26T11:40:00.886Z,98849.06
2022-09-26T11:45:23.021Z,98858.06
2022-09-26T11:51:10.502Z,98857.22
2022-09-26T11:56:39.055Z,98863.44
2022-09-26T12:01:55.974Z,98869.56
2022-09-26T12:07:07.683Z,98873.22
2022-09-26T12:12:35.940Z,98858.34
2022-09-26T12:18:17.786Z,98874.56
2022-09-26T12:23:34.072Z,98879.50
2022-09-26T12:29:02.857Z,98877.41
2022-09-26T12:34:31.660Z,98880.09
2022-09-26T12:40:10.891Z,98873.78
2022-09-26T12:45:34.586Z,98883.56
2022-09-26T12:50:53.317Z,98883.59
2022-09-26T12:56:11.551Z,98879.44
2022-09-26T13:01:23.797Z,98882.94
2022-09-26T13:06:48.921Z,98885.41
2022-09-26T13:12:26.611Z,98902.81
2022-09-26T13:17:36.345Z,98882.72
2022-09-26T13:22:58.670Z,98888.91
2022-09-26T13:28:09.698Z,98906.53
2022-09-26T13:33:42.984Z,98905.66
2022-09-26T13:38:58.126Z,98901.16
2022-09-26T13:44:29.805Z,98908.34
2022-09-26T13:49:44.125Z,98912.63
2022-09-26T13:55:14.904Z,98926.91
2022-09-26T14:00:29.394Z,98923.38
2022-09-26T14:05:48.015Z,98913.31
2022-09-26T14:11:12.026Z,98892.94
2022-09-26T14:16:35.922Z,98925.19
2022-09-26T14:22:00.725Z,98919.34
2022-09-26T14:27:04.009Z,98924.91
2022-09-26T14:32:12.580Z,98930.34
2022-09-26T14:37:24.483Z,98938.47
2022-09-26T14:42:33.022Z,98938.38
2022-09-26T14:47:43.572Z,98927.34
2022-09-26T14:53:00.363Z,98947.25
2022-09-26T14:58:38.342Z,98954.47
2022-09-26T15:03:41.454Z,98941.84
2022-09-26T15:08:44.257Z,98951.38
2022-09-26T15:13:48.459Z,98963.41
2022-09-26T15:19:03.474Z,98979.09
2022-09-26T15:24:25.627Z,98987.88
2022-09-26T15:29:32.680Z,98987.88
2022-09-26T15:34:39.803Z,98995.59
2022-09-26T15:39:43.122Z,98987.00
2022-09-26T15:44:55.155Z,98982.63
2022-09-26T15:50:10.489Z,98999.69
2022-09-26T15:55:20.195Z,99000.75
2022-09-26T16:00:23.012Z,99011.78
2022-09-26T16:05:27.282Z,99009.31
2022-09-26T16:10:33.545Z,99019.94
2022-09-26T16:15:36.226Z,99016.34
2022-09-26T16:20:38.834Z,99019.94
2022-09-26T16:25:47.956Z,99016.56
2022-09-26T16:30:59.410Z,99022.47
2022-09-26T16:36:09.772Z,99025.84
2022-09-26T16:41:59.526Z,99001.00
2022-09-26T16:46:55.243Z,99009.53
2022-09-26T16:52:21.021Z,99018.88
2022-09-26T16:57:40.048Z,99022.38
2022-09-26T17:02:42.851Z,99017.19
2022-09-26T17:07:47.102Z,98993.16
2022-09-26T17:12:53.365Z,98987.94
2022-09-26T17:17:57.830Z,99024.75
2022-09-26T17:23:16.881Z,99034.34
2022-09-26T17:28:36.275Z,99033.47
2022-09-26T17:33:42.340Z,99038.66
2022-09-26T17:38:45.178Z,99010.47
2022-09-26T17:43:47.753Z,99044.69
2022-09-26T17:48:50.393Z,99050.94
2022-09-26T17:53:53.014Z,99055.34
2022-09-26T17:58:57.033Z,99040.84
2022-09-26T18:04:06.460Z,99059.59
2022-09-26T18:09:12.319Z,99053.69
2022-09-26T18:14:17.497Z,99053.75
2022-09-26T18:19:21.248Z,99059.66
2022-09-26T18:24:28.783Z,99070.06
2022-09-26T18:29:36.065Z,99068.41
2022-09-26T18:34:38.605Z,99064.16
2022-09-26T18:39:41.394Z,99065.03
2022-09-26T18:44:44.122Z,99066.78
2022-09-26T18:49:47.296Z,99051.50
2022-09-26T18:55:09.874Z,99061.91
2022-09-26T19:00:12.801Z,99063.72
2022-09-26T19:05:16.539Z,99063.66
2022-09-26T19:10:23.016Z,99066.13
2022-09-26T19:15:25.982Z,99072.34
2022-09-26T19:20:28.952Z,99067.25
2022-09-26T19:25:31.699Z,99063.94
2022-09-26T19:30:34.585Z,99069.13
2022-09-26T19:35:42.134Z,99078.59
2022-09-26T19:40:48.638Z,99076.06
2022-09-26T19:45:54.306Z,99081.25
2022-09-26T19:50:56.976Z,99088.06
2022-09-26T19:56:00.904Z,99057.31
2022-09-26T20:01:15.295Z,99088.19
2022-09-26T20:06:23.711Z,99081.38
2022-09-26T20:11:27.214Z,99094.19
2022-09-26T20:16:34.637Z,99097.63
2022-09-26T20:21:37.321Z,99107.94
2022-09-26T20:26:41.004Z,99095.97
2022-09-26T20:31:43.775Z,99103.66
2022-09-26T20:36:49.660Z,99111.38
2022-09-26T20:41:53.098Z,99081.41
2022-09-26T20:47:00.149Z,99110.53
2022-09-26T20:52:03.581Z,99112.25
2022-09-26T20:57:06.156Z,99119.94
2022-09-26T21:02:39.220Z,99125.09
2022-09-26T21:07:42.466Z,99120.78
2022-09-26T21:12:44.984Z,99112.25
2022-09-26T21:17:49.028Z,99111.38
2022-09-26T21:22:52.755Z,99100.25
2022-09-26T21:28:28.974Z,99125.06
2022-09-26T21:33:31.514Z,99130.19
2022-09-26T21:38:34.058Z,99134.50
2022-09-26T21:43:41.963Z,99125.94
2022-09-26T21:48:44.522Z,99145.63
2022-09-26T21:53:56.379Z,99143.06
2022-09-26T21:58:59.087Z,99137.91
2022-09-26T22:04:01.818Z,99142.19
2022-09-26T22:09:04.553Z,99146.47
2022-09-26T22:14:07.329Z,99122.47
2022-09-26T22:19:10.115Z,99148.16
2022-09-26T22:24:13.522Z,99154.19
2022-09-26T22:29:16.357Z,99137.06
2022-09-26T22:34:20.237Z,99162.75
2022-09-26T22:39:22.781Z,99171.25
2022-09-26T22:44:25.377Z,99163.56
2022-09-26T22:49:27.992Z,99147.22
2022-09-26T22:54:30.613Z,99172.06
2022-09-26T22:59:33.202Z,99174.59
2022-09-26T23:04:56.061Z,99169.41
2022-09-26T23:10:00.348Z,99158.25
2022-09-26T23:15:03.111Z,99154.00
2022-09-26T23:20:06.988Z,99152.19
2022-09-26T23:25:09.860Z,99143.53
2022-09-26T23:30:13.415Z,99143.59
2022-09-26T23:35:16.253Z,99149.56
2022-09-26T23:40:18.881Z,99138.44
2022-09-26T23:45:21.649Z,99137.59
2022-09-26T23:50:24.427Z,99141.06
2022-09-26T23:55:27.027Z,99130.72
